Time;durP1;ratioP1;P1;durP2;ratioP2;P2;SDS_P1;SDS_P2;PMS_P1;PMS_P2;Temp;Humidity;BMP_temperature;BMP_pressure;BME280_temperature;BME280_humidity;BME280_pressure;Samples;Min_cycle;Max_cycle;Signal;HPM_P1;HPM_P2
2023/08/21 00:00:35;;;;;;;8.65;4.78;;;;;;;;;;5062861;28;20487;-76
2023/08/21 00:03:03;;;;;;;9.63;4.72;;;;;;;;;;5045089;28;20052;-75
2023/08/21 00:05:29;;;;;;;10.00;5.50;;;;;;;;;;5060498;28;20036;-76
2023/08/21 00:07:55;;;;;;;8.77;4.45;;;;;;;;;;5061960;28;20036;-74
2023/08/21 00:10:23;;;;;;;8.13;4.30;;;;;;;;;;5061766;28;20059;-76
2023/08/21 00:12:49;;;;;;;7.13;4.25;;;;;;;;;;5044063;28;20524;-76
2023/08/21 00:15:15;;;;;;;8.60;5.38;;;;;;;;;;5061967;28;20029;-76
2023/08/21 00:17:43;;;;;;;12.90;4.55;;;;;;;;;;5060651;28;20472;-75
2023/08/21 00:20:10;;;;;;;10.38;4.15;;;;;;;;;;5061931;28;20040;-76
2023/08/21 00:22:38;;;;;;;8.80;4.97;;;;;;;;;;5062124;28;20036;-76
2023/08/21 00:25:04;;;;;;;8.18;5.10;;;;;;;;;;5044760;28;20086;-74
2023/08/21 00:27:30;;;;;;;11.07;5.22;;;;;;;;;;5059770;28;20107;-75
2023/08/21 00:29:56;;;;;;;11.80;5.07;;;;;;;;;;5045572;28;20028;-74
2023/08/21 00:32:25;;;;;;;9.02;5.47;;;;;;;;;;5042814;28;20123;-76
2023/08/21 00:34:53;;;;;;;9.70;5.07;;;;;;;;;;5044456;28;20025;-73
2023/08/21 00:37:19;;;;;;;8.73;4.63;;;;;;;;;;5060678;28;20032;-74
2023/08/21 00:39:45;;;;;;;7.18;5.57;;;;;;;;;;5061592;28;20036;-75
2023/08/21 00:42:11;;;;;;;8.40;4.35;;;;;;;;;;5061371;28;20040;-77
2023/08/21 00:44:37;;;;;;;13.27;5.38;;;;;;;;;;5061889;28;20093;-76
2023/08/21 00:47:03;;;;;;;8.88;5.00;;;;;;;;;;5044068;28;20031;-75
2023/08/21 00:49:32;;;;;;;8.98;4.65;;;;;;;;;;5061492;28;20056;-76
2023/08/21 00:52:01;;;;;;;7.93;4.35;;;;;;;;;;5060441;28;20108;-78
2023/08/21 00:54:27;;;;;;;7.18;4.22;;;;;;;;;;5062066;28;20029;-75
2023/08/21 00:56:56;;;;;;;7.80;4.88;;;;;;;;;;5057988;28;20601;-75
2023/08/21 00:59:22;;;;;;;6.55;4.40;;;;;;;;;;5061230;28;20891;-74
2023/08/21 01:01:48;;;;;;;11.65;4.82;;;;;;;;;;5043990;28;20059;-76
2023/08/21 01:04:14;;;;;;;7.78;4.50;;;;;;;;;;5060668;28;20146;-76
2023/08/21 01:06:43;;;;;;;8.68;4.43;;;;;;;;;;5036879;28;20033;-76
2023/08/21 01:09:28;;;;;;;8.25;4.38;;;;;;;;;;5060943;28;20413;-77
2023/08/21 01:12:13;;;;;;;11.90;4.70;;;;;;;;;;5061785;28;20029;-77
2023/08/21 01:14:51;;;;;;;9.52;4.55;;;;;;;;;;5061104;28;20063;-77
2023/08/21 01:17:19;;;;;;;10.40;4.82;;;;;;;;;;5060623;28;20044;-77
2023/08/21 01:19:48;;;;;;;8.05;5.22;;;;;;;;;;5043970;28;20041;-76
2023/08/21 01:22:15;;;;;;;9.93;5.35;;;;;;;;;;5060249;28;20098;-77
2023/08/21 01:24:41;;;;;;;7.38;4.35;;;;;;;;;;5060901;28;20047;-75
2023/08/21 01:27:08;;;;;;;11.55;4.90;;;;;;;;;;5062240;28;20171;-74
2023/08/21 01:29:39;;;;;;;10.82;4.57;;;;;;;;;;5060714;28;20037;-73
2023/08/21 01:32:12;;;;;;;10.05;4.45;;;;;;;;;;5060142;28;20028;-74
2023/08/21 01:34:38;;;;;;;10.10;4.95;;;;;;;;;;5044176;28;20040;-71
2023/08/21 01:37:05;;;;;;;8.23;4.57;;;;;;;;;;5060432;28;20036;-76
2023/08/21 01:39:31;;;;;;;8.52;4.72;;;;;;;;;;5043859;28;20040;-77
2023/08/21 01:42:02;;;;;;;6.50;4.40;;;;;;;;;;5060195;28;20115;-76
2023/08/21 01:44:31;;;;;;;10.27;4.65;;;;;;;;;;5061480;28;20130;-77
2023/08/21 01:46:59;;;;;;;9.02;4.30;;;;;;;;;;5060803;28;20021;-75
2023/08/21 01:49:27;;;;;;;13.45;4.75;;;;;;;;;;5043806;28;20373;-77
2023/08/21 01:51:53;;;;;;;8.13;4.35;;;;;;;;;;5035289;28;20071;-74
2023/08/21 01:54:22;;;;;;;11.27;4.78;;;;;;;;;;5060689;28;20116;-76
2023/08/21 01:56:48;;;;;;;13.13;3.95;;;;;;;;;;5059786;28;20025;-75
2023/08/21 01:59:16;;;;;;;17.83;4.45;;;;;;;;;;5041713;28;21586;-77
2023/08/21 02:01:42;;;;;;;7.30;4.07;;;;;;;;;;5060024;28;20032;-74
2023/08/21 02:04:08;;;;;;;8.23;4.40;;;;;;;;;;5059883;28;20044;-77
2023/08/21 02:06:34;;;;;;;5.85;4.18;;;;;;;;;;5059064;28;20040;-76
2023/08/21 02:09:00;;;;;;;12.05;4.45;;;;;;;;;;5059835;28;20112;-75
2023/08/21 02:11:26;;;;;;;8.18;4.18;;;;;;;;;;5043487;28;20035;-76
2023/08/21 02:13:54;;;;;;;13.00;4.60;;;;;;;;;;5059475;28;20373;-75
2023/08/21 02:16:21;;;;;;;7.32;3.85;;;;;;;;;;5059786;28;20041;-77
2023/08/21 02:18:50;;;;;;;7.28;3.55;;;;;;;;;;5060116;28;21837;-76
2023/08/21 02:21:18;;;;;;;11.15;4.45;;;;;;;;;;5043666;28;20032;-77
2023/08/21 02:23:46;;;;;;;6.93;3.97;;;;;;;;;;5060459;28;20056;-78
2023/08/21 02:26:12;;;;;;;6.55;3.47;;;;;;;;;;5060833;28;20076;-75
2023/08/21 02:28:38;;;;;;;8.70;3.38;;;;;;;;;;5060875;28;20037;-77
2023/08/21 02:31:05;;;;;;;10.45;3.80;;;;;;;;;;5047465;28;20119;-75
2023/08/21 02:33:31;;;;;;;7.72;3.60;;;;;;;;;;5046493;28;20037;-77
2023/08/21 02:35:57;;;;;;;9.10;3.70;;;;;;;;;;5063958;28;20040;-77
2023/08/21 02:38:23;;;;;;;7.35;3.33;;;;;;;;;;5046722;28;20433;-75
2023/08/21 02:40:49;;;;;;;8.15;3.70;;;;;;;;;;5063446;28;20040;-75
2023/08/21 02:43:16;;;;;;;5.97;3.65;;;;;;;;;;5039800;28;20093;-75
2023/08/21 02:45:44;;;;;;;8.55;4.00;;;;;;;;;;5063883;28;20036;-75
2023/08/21 02:48:10;;;;;;;9.68;4.22;;;;;;;;;;5063686;28;20342;-75
2023/08/21 02:50:36;;;;;;;6.95;3.63;;;;;;;;;;5063493;28;20043;-74
2023/08/21 02:53:02;;;;;;;12.35;4.22;;;;;;;;;;5064100;28;20032;-75
2023/08/21 02:55:28;;;;;;;9.43;4.15;;;;;;;;;;5063867;28;20029;-78
2023/08/21 02:57:54;;;;;;;8.35;3.58;;;;;;;;;;5063647;28;20107;-76
2023/08/21 03:00:20;;;;;;;13.50;3.83;;;;;;;;;;5045462;28;21619;-76
2023/08/21 03:02:46;;;;;;;8.05;3.78;;;;;;;;;;5047142;28;20032;-75
2023/08/21 03:05:15;;;;;;;13.50;3.58;;;;;;;;;;5046476;28;20093;-75
2023/08/21 03:07:41;;;;;;;5.63;3.17;;;;;;;;;;5063499;28;20105;-76
2023/08/21 03:10:07;;;;;;;15.88;4.25;;;;;;;;;;5063818;28;20036;-76
2023/08/21 03:12:35;;;;;;;10.02;3.85;;;;;;;;;;5064663;28;20047;-76
2023/08/21 03:15:03;;;;;;;11.38;3.45;;;;;;;;;;5063364;28;20037;-74
2023/08/21 03:17:29;;;;;;;7.13;3.47;;;;;;;;;;5038135;28;20127;-76
2023/08/21 03:19:55;;;;;;;6.65;3.80;;;;;;;;;;5063448;28;20032;-75
2023/08/21 03:22:21;;;;;;;9.25;4.15;;;;;;;;;;5063207;28;20055;-77
2023/08/21 03:24:47;;;;;;;5.55;3.35;;;;;;;;;;5063071;28;20070;-77
2023/08/21 03:27:19;;;;;;;8.57;3.47;;;;;;;;;;5037238;28;20115;-74
2023/08/21 03:29:48;;;;;;;12.68;3.55;;;;;;;;;;5044018;28;21645;-77
2023/08/21 03:32:17;;;;;;;7.95;3.42;;;;;;;;;;5062813;28;20027;-75
2023/08/21 03:34:44;;;;;;;8.18;3.50;;;;;;;;;;5060756;28;20029;-75
2023/08/21 03:37:12;;;;;;;9.88;3.55;;;;;;;;;;5063333;28;20071;-76
2023/08/21 03:39:40;;;;;;;7.72;3.33;;;;;;;;;;5039635;28;20036;-76
2023/08/21 03:42:09;;;;;;;7.60;3.08;;;;;;;;;;5063010;28;20886;-78
2023/08/21 03:44:37;;;;;;;9.10;3.45;;;;;;;;;;5045487;28;20048;-76
2023/08/21 03:47:03;;;;;;;7.25;3.22;;;;;;;;;;5061470;28;20056;-76
2023/08/21 03:49:29;;;;;;;9.00;3.50;;;;;;;;;;5062628;28;20056;-76
2023/08/21 03:51:55;;;;;;;6.88;3.13;;;;;;;;;;5061369;28;20043;-76
2023/08/21 03:54:21;;;;;;;9.13;3.55;;;;;;;;;;5038120;28;20094;-75
2023/08/21 03:56:47;;;;;;;9.65;3.40;;;;;;;;;;5062505;28;20037;-77
2023/08/21 03:59:13;;;;;;;10.32;3.75;;;;;;;;;;5062239;28;20705;-75
2023/08/21 04:01:39;;;;;;;8.68;3.35;;;;;;;;;;5044711;28;20040;-75
2023/08/21 04:04:04;;;;;;;6.28;3.28;;;;;;;;;;5062183;28;20037;-76
2023/08/21 04:06:30;;;;;;;4.85;2.78;;;;;;;;;;5062408;28;20461;-76
2023/08/21 04:08:59;;;;;;;5.45;3.25;;;;;;;;;;5045545;28;20159;-76
2023/08/21 04:11:25;;;;;;;5.82;3.42;;;;;;;;;;5061739;28;20085;-76
2023/08/21 04:13:51;;;;;;;8.77;2.80;;;;;;;;;;5044537;28;20036;-76
2023/08/21 04:16:17;;;;;;;11.68;3.30;;;;;;;;;;5043372;28;20465;-78
2023/08/21 04:18:43;;;;;;;10.82;2.90;;;;;;;;;;5062877;28;20033;-76
2023/08/21 04:21:09;;;;;;;6.63;3.55;;;;;;;;;;5038556;28;20067;-76
2023/08/21 04:23:38;;;;;;;7.78;2.97;;;;;;;;;;5059980;28;20725;-76
2023/08/21 04:26:04;;;;;;;6.28;3.10;;;;;;;;;;5044755;28;20094;-75
2023/08/21 04:28:31;;;;;;;8.07;2.90;;;;;;;;;;5061400;28;20036;-76
2023/08/21 04:30:59;;;;;;;6.38;3.05;;;;;;;;;;5061675;28;20044;-76
2023/08/21 04:33:26;;;;;;;7.47;3.10;;;;;;;;;;5061033;28;20032;-75
2023/08/21 04:35:55;;;;;;;6.28;2.92;;;;;;;;;;5059179;28;20093;-75
2023/08/21 04:38:23;;;;;;;9.68;4.18;;;;;;;;;;5045434;28;20042;-76
2023/08/21 04:40:49;;;;;;;6.57;2.92;;;;;;;;;;5044941;28;20032;-77
2023/08/21 04:43:15;;;;;;;9.65;3.63;;;;;;;;;;5061145;28;20049;-76
2023/08/21 04:45:52;;;;;;;6.32;3.03;;;;;;;;;;5044760;28;20506;-75
2023/08/21 04:48:19;;;;;;;8.57;3.08;;;;;;;;;;5038148;28;20047;-75
2023/08/21 04:50:47;;;;;;;6.72;3.50;;;;;;;;;;5043933;28;20471;-77
2023/08/21 04:53:16;;;;;;;11.80;3.28;;;;;;;;;;5061879;28;20551;-77
2023/08/21 04:55:42;;;;;;;8.57;3.22;;;;;;;;;;5060407;28;20029;-77
2023/08/21 04:58:09;;;;;;;9.07;3.08;;;;;;;;;;5062160;28;20051;-76
2023/08/21 05:00:37;;;;;;;13.70;3.40;;;;;;;;;;5061652;28;20036;-75
2023/08/21 05:03:03;;;;;;;6.70;3.28;;;;;;;;;;5044203;28;20059;-77
2023/08/21 05:05:29;;;;;;;4.53;2.70;;;;;;;;;;5060792;28;20040;-75
2023/08/21 05:07:55;;;;;;;11.20;3.35;;;;;;;;;;5060893;28;20036;-75
2023/08/21 05:10:21;;;;;;;8.88;3.40;;;;;;;;;;5043770;28;20028;-76
2023/08/21 05:12:47;;;;;;;9.35;3.33;;;;;;;;;;5042844;28;20036;-74
2023/08/21 05:15:14;;;;;;;9.57;3.53;;;;;;;;;;5044098;28;20043;-77
2023/08/21 05:17:40;;;;;;;13.13;2.80;;;;;;;;;;5061127;28;20044;-77
2023/08/21 05:20:06;;;;;;;6.95;3.40;;;;;;;;;;5060871;28;20040;-75
2023/08/21 05:22:32;;;;;;;17.15;3.60;;;;;;;;;;5061722;28;20153;-74
2023/08/21 05:24:58;;;;;;;9.73;3.75;;;;;;;;;;5060526;28;20457;-77
2023/08/21 05:27:24;;;;;;;10.95;3.88;;;;;;;;;;5060284;28;20067;-75
2023/08/21 05:29:51;;;;;;;13.05;3.17;;;;;;;;;;5061559;28;20041;-77
2023/08/21 05:32:17;;;;;;;10.55;4.50;;;;;;;;;;5061422;28;20025;-76
2023/08/21 05:34:45;;;;;;;8.35;4.00;;;;;;;;;;5042539;28;20032;-74
2023/08/21 05:37:11;;;;;;;8.13;3.80;;;;;;;;;;5059940;28;20032;-77
2023/08/21 05:39:37;;;;;;;9.15;3.83;;;;;;;;;;5059912;28;20096;-73
2023/08/21 05:42:06;;;;;;;7.28;3.20;;;;;;;;;;5060484;28;20064;-76
2023/08/21 05:44:34;;;;;;;8.77;3.35;;;;;;;;;;5035886;28;20437;-76
2023/08/21 05:47:02;;;;;;;13.30;4.57;;;;;;;;;;5060370;28;20154;-78
2023/08/21 05:49:28;;;;;;;15.95;4.78;;;;;;;;;;5060472;28;20115;-76
2023/08/21 05:51:58;;;;;;;16.95;4.63;;;;;;;;;;5060263;28;20033;-77
2023/08/21 05:54:30;;;;;;;12.93;3.65;;;;;;;;;;5060651;28;20055;-76
2023/08/21 05:56:56;;;;;;;;;;;;;;;;;;5038263;28;20028;-76
2023/08/21 05:59:32;;;;;;;10.85;3.55;;;;;;;;;;5059105;28;20800;-76
2023/08/21 06:01:58;;;;;;;16.70;3.60;;;;;;;;;;5044060;28;20120;-76
2023/08/21 06:04:24;;;;;;;14.93;4.13;;;;;;;;;;5064930;28;20123;-76
2023/08/21 06:06:53;;;;;;;14.85;3.80;;;;;;;;;;5047120;28;20094;-74
2023/08/21 06:09:19;;;;;;;17.60;4.13;;;;;;;;;;5064504;28;20047;-76
2023/08/21 06:11:45;;;;;;;13.45;3.47;;;;;;;;;;5047956;28;20047;-78
2023/08/21 06:14:11;;;;;;;14.60;4.75;;;;;;;;;;5063510;28;20032;-75
2023/08/21 06:16:37;;;;;;;13.00;3.58;;;;;;;;;;5063865;28;20078;-76
2023/08/21 06:19:03;;;;;;;13.85;4.38;;;;;;;;;;5063264;28;20036;-77
2023/08/21 06:21:29;;;;;;;11.10;4.25;;;;;;;;;;5063690;28;20040;-73
2023/08/21 06:23:55;;;;;;;20.55;4.00;;;;;;;;;;5064110;28;20039;-76
2023/08/21 06:26:21;;;;;;;13.10;3.60;;;;;;;;;;5064459;28;20122;-75
2023/08/21 06:28:47;;;;;;;11.13;4.00;;;;;;;;;;5063746;28;20129;-77
2023/08/21 06:31:16;;;;;;;10.57;3.85;;;;;;;;;;5063624;28;20475;-77
2023/08/21 06:33:42;;;;;;;15.00;3.80;;;;;;;;;;5064202;28;20081;-76
2023/08/21 06:36:10;;;;;;;13.07;5.28;;;;;;;;;;5064176;28;20024;-77
2023/08/21 06:38:36;;;;;;;12.05;5.00;;;;;;;;;;5039188;28;20032;-77
2023/08/21 06:41:04;;;;;;;10.77;4.53;;;;;;;;;;5061189;28;20040;-76
2023/08/21 06:43:30;;;;;;;14.00;4.72;;;;;;;;;;5064650;28;20464;-75
2023/08/21 06:45:56;;;;;;;9.65;4.32;;;;;;;;;;5064294;28;21747;-76
2023/08/21 06:48:25;;;;;;;12.50;4.35;;;;;;;;;;5040742;28;20115;-76
2023/08/21 06:50:53;;;;;;;14.38;5.00;;;;;;;;;;5045324;28;20036;-77
2023/08/21 06:53:19;;;;;;;9.27;5.40;;;;;;;;;;5062887;28;20452;-75
2023/08/21 06:55:46;;;;;;;9.02;5.25;;;;;;;;;;5063141;28;20061;-75
2023/08/21 06:58:12;;;;;;;15.95;6.30;;;;;;;;;;5039966;28;20033;-77
2023/08/21 07:00:38;;;;;;;9.00;4.72;;;;;;;;;;5039451;28;20024;-76
2023/08/21 07:03:07;;;;;;;7.85;4.40;;;;;;;;;;5062560;28;20033;-74
2023/08/21 07:05:35;;;;;;;11.05;4.55;;;;;;;;;;5062620;28;20036;-77
2023/08/21 07:08:04;;;;;;;14.85;5.60;;;;;;;;;;5045827;28;20032;-74
2023/08/21 07:10:31;;;;;;;8.68;5.25;;;;;;;;;;5062242;28;20048;-77
2023/08/21 07:12:57;;;;;;;11.07;5.28;;;;;;;;;;5061867;28;20586;-75
2023/08/21 07:15:23;;;;;;;12.10;6.60;;;;;;;;;;5062339;28;20040;-75
2023/08/21 07:17:50;;;;;;;15.20;7.00;;;;;;;;;;5046140;28;20892;-75
2023/08/21 07:20:16;;;;;;;14.68;6.30;;;;;;;;;;5063532;28;20044;-78
2023/08/21 07:22:42;;;;;;;7.75;5.97;;;;;;;;;;5061887;28;20032;-76
2023/08/21 07:25:08;;;;;;;11.48;6.03;;;;;;;;;;5062677;28;20477;-75
2023/08/21 07:27:36;;;;;;;12.68;5.80;;;;;;;;;;5062273;28;20067;-78
2023/08/21 07:30:03;;;;;;;9.10;6.07;;;;;;;;;;5062185;28;20100;-76
2023/08/21 07:32:29;;;;;;;16.15;6.70;;;;;;;;;;5062468;28;20120;-76
2023/08/21 07:34:55;;;;;;;23.70;6.95;;;;;;;;;;5061390;28;20111;-77
2023/08/21 07:37:21;;;;;;;14.27;6.43;;;;;;;;;;5062132;28;20132;-76
2023/08/21 07:39:47;;;;;;;11.27;7.18;;;;;;;;;;5062780;28;20044;-76
2023/08/21 07:42:13;;;;;;;13.20;7.72;;;;;;;;;;5061992;28;20028;-76
2023/08/21 07:44:39;;;;;;;12.70;8.15;;;;;;;;;;5061865;28;20101;-74
2023/08/21 07:47:05;;;;;;;10.57;7.90;;;;;;;;;;5062731;28;20127;-77
2023/08/21 07:49:32;;;;;;;16.77;7.00;;;;;;;;;;5045121;28;20024;-76
2023/08/21 07:51:58;;;;;;;12.05;7.10;;;;;;;;;;5059451;28;20020;-76
2023/08/21 07:54:24;;;;;;;15.45;7.45;;;;;;;;;;5061324;28;20042;-76
2023/08/21 07:56:50;;;;;;;10.35;6.20;;;;;;;;;;5063169;28;20029;-76
2023/08/21 07:59:16;;;;;;;9.43;6.22;;;;;;;;;;5062392;28;20029;-74
2023/08/21 08:01:42;;;;;;;10.63;6.15;;;;;;;;;;5062141;28;20028;-75
2023/08/21 08:04:10;;;;;;;7.63;5.68;;;;;;;;;;5038552;28;20139;-76
2023/08/21 08:06:36;;;;;;;9.40;5.57;;;;;;;;;;5041686;28;20079;-76
2023/08/21 08:09:06;;;;;;;9.90;5.53;;;;;;;;;;5062603;28;20064;-77
2023/08/21 08:11:32;;;;;;;18.08;6.07;;;;;;;;;;5061696;28;20033;-75
2023/08/21 08:14:00;;;;;;;9.63;5.68;;;;;;;;;;5044516;28;20384;-77
2023/08/21 08:16:26;;;;;;;13.40;5.70;;;;;;;;;;5044075;28;20040;-76
2023/08/21 08:18:52;;;;;;;12.63;6.05;;;;;;;;;;5045766;28;20024;-78
2023/08/21 08:21:20;;;;;;;16.05;6.60;;;;;;;;;;5061728;28;20067;-75
2023/08/21 08:23:49;;;;;;;14.52;5.78;;;;;;;;;;5045376;28;20490;-75
2023/08/21 08:26:16;;;;;;;14.15;5.97;;;;;;;;;;5060059;28;20058;-76
2023/08/21 08:28:42;;;;;;;12.32;5.72;;;;;;;;;;5044784;28;20024;-77
2023/08/21 08:31:17;;;;;;;12.60;6.22;;;;;;;;;;5061519;28;20085;-77
2023/08/21 08:33:46;;;;;;;14.55;5.75;;;;;;;;;;5060715;28;20039;-77
2023/08/21 08:36:12;;;;;;;13.82;6.25;;;;;;;;;;5061282;28;20028;-76
2023/08/21 08:38:38;;;;;;;15.30;6.80;;;;;;;;;;5061823;28;20056;-75
2023/08/21 08:41:07;;;;;;;12.85;6.53;;;;;;;;;;5044501;28;20364;-77
2023/08/21 08:43:37;;;;;;;12.48;6.93;;;;;;;;;;5060869;28;20047;-77
2023/08/21 08:46:04;;;;;;;13.55;6.47;;;;;;;;;;5061653;28;20032;-77
2023/08/21 08:48:35;;;;;;;14.07;6.38;;;;;;;;;;5044410;28;20101;-75
2023/08/21 08:51:01;;;;;;;17.08;7.13;;;;;;;;;;5043971;28;21541;-77
2023/08/21 08:53:28;;;;;;;26.42;7.10;;;;;;;;;;5060222;28;20017;-77
2023/08/21 08:55:54;;;;;;;18.35;7.25;;;;;;;;;;5060320;28;20035;-77
2023/08/21 08:58:22;;;;;;;18.20;8.52;;;;;;;;;;5061631;28;20024;-76
2023/08/21 09:00:48;;;;;;;21.25;8.90;;;;;;;;;;5061031;28;20858;-77
2023/08/21 09:03:15;;;;;;;16.45;8.98;;;;;;;;;;5060437;28;20024;-75
2023/08/21 09:05:41;;;;;;;16.40;8.68;;;;;;;;;;5042915;28;20034;-76
2023/08/21 09:08:07;;;;;;;13.25;9.38;;;;;;;;;;5060507;28;20116;-79
2023/08/21 09:10:36;;;;;;;18.50;9.55;;;;;;;;;;5061494;28;20385;-75
2023/08/21 09:13:09;;;;;;;18.83;8.32;;;;;;;;;;5061253;28;20032;-77
2023/08/21 09:15:36;;;;;;;16.88;9.38;;;;;;;;;;5044204;28;20036;-78
2023/08/21 09:18:02;;;;;;;15.48;8.23;;;;;;;;;;5059905;28;20503;-74
2023/08/21 09:20:28;;;;;;;12.95;7.63;;;;;;;;;;5043533;28;20519;-77
2023/08/21 09:22:57;;;;;;;15.30;8.23;;;;;;;;;;5060449;28;20060;-75
2023/08/21 09:25:25;;;;;;;22.13;11.02;;;;;;;;;;5043630;28;20090;-78
2023/08/21 09:27:55;;;;;;;21.35;9.15;;;;;;;;;;5043046;28;20109;-76
2023/08/21 09:30:21;;;;;;;16.85;8.80;;;;;;;;;;5043590;28;20032;-75
2023/08/21 09:33:00;;;;;;;20.85;8.77;;;;;;;;;;5060415;28;20036;-76
2023/08/21 09:35:27;;;;;;;14.75;8.20;;;;;;;;;;5061034;28;20107;-76
2023/08/21 09:37:53;;;;;;;21.95;9.68;;;;;;;;;;5060375;28;20038;-78
2023/08/21 09:40:20;;;;;;;21.90;10.45;;;;;;;;;;5060019;28;20365;-75
2023/08/21 09:42:47;;;;;;;21.45;10.68;;;;;;;;;;5043007;28;20517;-75
2023/08/21 09:45:13;;;;;;;24.88;10.00;;;;;;;;;;5059604;28;20123;-75
2023/08/21 09:47:39;;;;;;;23.63;9.30;;;;;;;;;;5059505;28;20082;-77
2023/08/21 09:50:06;;;;;;;20.73;8.77;;;;;;;;;;5044330;28;20071;-77
2023/08/21 09:52:32;;;;;;;18.52;10.70;;;;;;;;;;5059841;28;20029;-76
2023/08/21 09:54:58;;;;;;;24.30;10.32;;;;;;;;;;5042408;28;20170;-76
2023/08/21 09:57:24;;;;;;;24.15;13.90;;;;;;;;;;5043653;28;20080;-76
2023/08/21 09:59:56;;;;;;;16.92;10.30;;;;;;;;;;5059703;28;20043;-75
2023/08/21 10:02:24;;;;;;;16.50;9.85;;;;;;;;;;5060366;28;20044;-75
2023/08/21 10:04:53;;;;;;;17.30;9.90;;;;;;;;;;5057662;28;20444;-75
2023/08/21 10:07:27;;;;;;;14.52;9.82;;;;;;;;;;5059903;28;20044;-77
2023/08/21 10:09:54;;;;;;;16.13;10.10;;;;;;;;;;5058842;28;20530;-77
2023/08/21 10:12:21;;;;;;;21.85;10.45;;;;;;;;;;5043194;28;20519;-73
2023/08/21 10:14:50;;;;;;;21.02;11.07;;;;;;;;;;5060168;28;20058;-76
2023/08/21 10:17:16;;;;;;;15.07;10.68;;;;;;;;;;5057371;28;20033;-75
2023/08/21 10:19:42;;;;;;;21.02;13.18;;;;;;;;;;5059700;28;20029;-75
2023/08/21 10:22:08;;;;;;;21.50;11.38;;;;;;;;;;5059210;28;20854;-75
2023/08/21 10:24:36;;;;;;;20.77;11.70;;;;;;;;;;5043016;28;20129;-77
2023/08/21 10:27:05;;;;;;;23.30;12.55;;;;;;;;;;5059811;28;20045;-76
2023/08/21 10:29:31;;;;;;;16.85;10.45;;;;;;;;;;5059646;28;20032;-77
2023/08/21 10:32:02;;;;;;;17.00;10.45;;;;;;;;;;5042383;28;20024;-76
2023/08/21 10:34:37;;;;;;;18.10;10.50;;;;;;;;;;5042373;28;20025;-76
2023/08/21 10:37:07;;;;;;;21.08;10.63;;;;;;;;;;5059849;28;20024;-74
2023/08/21 10:39:35;;;;;;;22.67;12.82;;;;;;;;;;5040325;28;20506;-76
2023/08/21 10:42:27;;;;;;;20.15;12.27;;;;;;;;;;5040667;28;20039;-76
2023/08/21 10:44:57;;;;;;;;;;;;;;;;;;5030685;28;20059;-77
2023/08/21 10:47:30;;;;;;;23.33;12.95;;;;;;;;;;5035398;28;19927;-76
2023/08/21 10:49:59;;;;;;;18.15;12.27;;;;;;;;;;5061765;28;20028;-76
2023/08/21 10:52:25;;;;;;;16.48;11.32;;;;;;;;;;5046442;28;20541;-76
2023/08/21 10:54:52;;;;;;;17.83;10.57;;;;;;;;;;5038831;28;20035;-74
2023/08/21 10:57:21;;;;;;;21.20;10.68;;;;;;;;;;5046170;28;20036;-75
2023/08/21 10:59:50;;;;;;;18.83;12.98;;;;;;;;;;5062638;28;20039;-77
2023/08/21 11:02:17;;;;;;;24.17;13.38;;;;;;;;;;5038608;28;20029;-76
2023/08/21 11:04:45;;;;;;;18.67;10.52;;;;;;;;;;5063396;28;20097;-75
2023/08/21 11:07:12;;;;;;;15.52;11.35;;;;;;;;;;5063994;28;20024;-77
2023/08/21 11:09:41;;;;;;;21.20;11.98;;;;;;;;;;5045366;28;20033;-76
2023/08/21 11:12:08;;;;;;;17.88;11.07;;;;;;;;;;5062827;28;20910;-77
2023/08/21 11:14:37;;;;;;;19.95;11.45;;;;;;;;;;5045543;28;20029;-75
2023/08/21 11:17:03;;;;;;;17.58;11.23;;;;;;;;;;5062730;28;20046;-76
2023/08/21 11:19:33;;;;;;;21.10;12.63;;;;;;;;;;5062145;28;20528;-74
2023/08/21 11:22:03;;;;;;;15.52;9.73;;;;;;;;;;5039113;28;20066;-76
2023/08/21 11:24:30;;;;;;;18.98;10.13;;;;;;;;;;5062264;28;20035;-74
2023/08/21 11:26:57;;;;;;;17.98;8.23;;;;;;;;;;5062292;28;20047;-76
2023/08/21 11:29:23;;;;;;;14.23;8.02;;;;;;;;;;5046182;28;20570;-76
2023/08/21 11:31:49;;;;;;;17.98;9.75;;;;;;;;;;5045839;28;20032;-76
2023/08/21 11:34:21;;;;;;;16.52;9.43;;;;;;;;;;5046085;28;20021;-76
2023/08/21 11:36:47;;;;;;;12.75;8.63;;;;;;;;;;5061828;28;20031;-76
2023/08/21 11:39:13;;;;;;;11.70;7.43;;;;;;;;;;5062749;28;20040;-77
2023/08/21 11:41:56;;;;;;;11.50;6.85;;;;;;;;;;5038033;28;20037;-74
2023/08/21 11:44:22;;;;;;;15.85;7.93;;;;;;;;;;5044191;28;20040;-76
2023/08/21 11:46:48;;;;;;;14.50;8.45;;;;;;;;;;5044699;28;20043;-76
2023/08/21 11:49:14;;;;;;;11.75;6.72;;;;;;;;;;5038652;28;20463;-76
2023/08/21 11:51:40;;;;;;;12.85;6.57;;;;;;;;;;5061319;28;20033;-78
2023/08/21 11:54:06;;;;;;;9.90;5.13;;;;;;;;;;5044929;28;20447;-76
2023/08/21 11:56:37;;;;;;;10.00;5.70;;;;;;;;;;5042874;28;20043;-77
2023/08/21 11:59:06;;;;;;;15.93;6.38;;;;;;;;;;5037761;28;20048;-76
2023/08/21 12:01:35;;;;;;;10.60;6.60;;;;;;;;;;5061542;28;20044;-77
2023/08/21 12:04:01;;;;;;;10.85;5.90;;;;;;;;;;5061709;28;20032;-76
2023/08/21 12:06:32;;;;;;;8.55;5.47;;;;;;;;;;5061607;28;20025;-77
2023/08/21 12:08:58;;;;;;;13.63;6.60;;;;;;;;;;5060421;28;20029;-76
2023/08/21 12:11:24;;;;;;;10.82;6.15;;;;;;;;;;5061922;28;20419;-77
2023/08/21 12:13:51;;;;;;;15.25;5.82;;;;;;;;;;5044787;28;20029;-77
2023/08/21 12:16:17;;;;;;;7.65;4.70;;;;;;;;;;5044759;28;20035;-77
2023/08/21 12:18:43;;;;;;;10.93;5.88;;;;;;;;;;5044405;28;20032;-75
2023/08/21 12:21:09;;;;;;;8.23;5.68;;;;;;;;;;5037091;28;20122;-78
2023/08/21 12:23:36;;;;;;;12.80;6.35;;;;;;;;;;5061664;28;20036;-75
2023/08/21 12:26:02;;;;;;;12.45;5.60;;;;;;;;;;5060297;28;20104;-74
2023/08/21 12:28:30;;;;;;;7.90;4.93;;;;;;;;;;5043590;28;20636;-77
2023/08/21 12:30:56;;;;;;;11.50;4.38;;;;;;;;;;5061419;28;20210;-74
2023/08/21 12:33:22;;;;;;;11.52;3.80;;;;;;;;;;5060801;28;20029;-76
2023/08/21 12:35:48;;;;;;;13.02;4.68;;;;;;;;;;5061676;28;20487;-76
2023/08/21 12:38:16;;;;;;;8.73;3.38;;;;;;;;;;5060362;28;20029;-75
2023/08/21 12:40:42;;;;;;;7.47;4.65;;;;;;;;;;5060102;28;20111;-77
2023/08/21 12:43:11;;;;;;;13.25;4.63;;;;;;;;;;5044352;28;20518;-75
2023/08/21 12:45:41;;;;;;;7.55;3.45;;;;;;;;;;5060939;28;20033;-79
2023/08/21 12:48:10;;;;;;;7.50;3.73;;;;;;;;;;5061016;28;20036;-76
2023/08/21 12:50:38;;;;;;;10.05;4.00;;;;;;;;;;5060682;28;20107;-75
2023/08/21 12:53:04;;;;;;;8.13;3.67;;;;;;;;;;5036407;28;20158;-76
2023/08/21 12:55:30;;;;;;;6.35;3.53;;;;;;;;;;5060199;28;20045;-77
2023/08/21 12:57:56;;;;;;;10.55;4.07;;;;;;;;;;5061006;28;20032;-75
2023/08/21 13:00:22;;;;;;;8.07;3.33;;;;;;;;;;5061392;28;20036;-78
2023/08/21 13:02:51;;;;;;;5.55;3.10;;;;;;;;;;5044104;28;20029;-75
2023/08/21 13:05:17;;;;;;;8.35;3.45;;;;;;;;;;5036662;28;20036;-76
2023/08/21 13:07:45;;;;;;;9.35;3.38;;;;;;;;;;5060977;28;20039;-76
2023/08/21 13:10:11;;;;;;;8.20;3.15;;;;;;;;;;5044064;28;20041;-77
2023/08/21 13:12:37;;;;;;;9.40;3.05;;;;;;;;;;5061135;28;20035;-77
2023/08/21 13:15:04;;;;;;;9.50;3.20;;;;;;;;;;5059779;28;20086;-77
2023/08/21 13:17:30;;;;;;;12.10;3.78;;;;;;;;;;5060705;28;21008;-76
2023/08/21 13:19:56;;;;;;;7.45;3.78;;;;;;;;;;5060103;28;20029;-77
2023/08/21 13:22:24;;;;;;;7.90;3.78;;;;;;;;;;5060116;28;20036;-77
2023/08/21 13:24:52;;;;;;;8.32;3.63;;;;;;;;;;5059671;28;20127;-76
2023/08/21 13:27:20;;;;;;;6.65;3.15;;;;;;;;;;5060736;28;20035;-76
2023/08/21 13:29:47;;;;;;;6.78;2.67;;;;;;;;;;5036728;28;20055;-74
2023/08/21 13:32:13;;;;;;;8.48;3.25;;;;;;;;;;5059581;28;20040;-75
2023/08/21 13:34:41;;;;;;;6.25;3.00;;;;;;;;;;5060171;28;20024;-76
2023/08/21 13:37:07;;;;;;;8.98;3.92;;;;;;;;;;5043093;28;20036;-77
2023/08/21 13:39:33;;;;;;;14.18;3.60;;;;;;;;;;5058290;28;20093;-77
2023/08/21 13:41:59;;;;;;;6.07;2.88;;;;;;;;;;5060211;28;20112;-75
2023/08/21 13:44:25;;;;;;;10.55;3.22;;;;;;;;;;5041376;28;20029;-76
2023/08/21 13:46:51;;;;;;;8.02;3.80;;;;;;;;;;5058951;28;20042;-77
2023/08/21 13:49:16;;;;;;;5.88;2.83;;;;;;;;;;5060299;28;20082;-76
2023/08/21 13:51:42;;;;;;;13.55;3.22;;;;;;;;;;5058083;28;20441;-76
2023/08/21 13:54:08;;;;;;;10.48;3.95;;;;;;;;;;5036428;28;20032;-76
2023/08/21 13:56:34;;;;;;;6.43;2.47;;;;;;;;;;5058565;28;20127;-75
2023/08/21 13:59:03;;;;;;;6.25;2.75;;;;;;;;;;5042994;28;20032;-77
2023/08/21 14:01:29;;;;;;;7.70;3.05;;;;;;;;;;5058225;28;20037;-76
2023/08/21 14:03:55;;;;;;;11.07;3.47;;;;;;;;;;5060506;28;20025;-77
2023/08/21 14:06:24;;;;;;;14.20;3.80;;;;;;;;;;5042972;28;20028;-78
2023/08/21 14:08:50;;;;;;;8.02;3.53;;;;;;;;;;5043484;28;20036;-76
2023/08/21 14:11:16;;;;;;;8.07;3.40;;;;;;;;;;5060154;28;20063;-78
2023/08/21 14:13:44;;;;;;;11.52;3.88;;;;;;;;;;5059269;28;20434;-75
2023/08/21 14:16:12;;;;;;;6.50;3.30;;;;;;;;;;5036118;28;20024;-76
2023/08/21 14:18:38;;;;;;;11.63;3.00;;;;;;;;;;5042868;28;20036;-76
2023/08/21 14:21:04;;;;;;;9.48;2.78;;;;;;;;;;5059179;28;20380;-76
2023/08/21 14:23:30;;;;;;;6.85;3.08;;;;;;;;;;5043759;28;20033;-75
2023/08/21 14:25:59;;;;;;;7.47;2.50;;;;;;;;;;5063216;28;21538;-76
2023/08/21 14:28:25;;;;;;;10.88;3.17;;;;;;;;;;5046868;28;20021;-77
2023/08/21 14:30:52;;;;;;;9.10;3.15;;;;;;;;;;5046663;28;20025;-77
2023/08/21 14:33:21;;;;;;;4.97;2.63;;;;;;;;;;5062003;28;20471;-76
2023/08/21 14:35:47;;;;;;;10.63;2.88;;;;;;;;;;5062940;28;20060;-76